Terminal Aerodrome Forecast
Issued by NWS

Home | Current Version | Previous Version | Text Only | Print | Product List | Glossary On
Versions: 1 2 3 4 5 6 7 8 9 10 11 12 13 14 15 16 17
000
FTUS45 KLKN 301720
TAFEKO
TAF
KEKO 301720Z 3018/0118 04011KT P6SM VCSH BKN035 BKN050
     FM302000 04011KT P6SM SCT035 BKN060
     FM010300 05008KT P6SM SCT035 BKN080
     FM011600 05011KT P6SM SCT040 BKN090=

USA.gov is the U.S. government's official web portal to all federal, state and local government web resources and services.